»·PEaware :: N3452E KSNA-KLAS

N3452E :: KSNA-KLAS

FLIGHT INFORMATION

Flight Status: Arrived
Operator: Privately registered:
United States
More flights under this callsign
Pilot: John C. (27555)
Aircraft: PILATUS PC-12 EAGLE
(PC12)
More flights by this aircraft type
Origin: KSNA John Wayne-Orange Co
United States
Destination: KLAS McCarran Intl
United States
More flights between these airports :: More routes between these airports
Route: MUSEL8 DAG CRESO4
File this flight plan on PilotEdge
Remarks:
Altitude:
(Current/Filed)
21,000ft
Speed:
(Current/Filed)
250kts
Departed: 09-Jan-21 09:00 PM
Arrived: 09-Jan-21 10:09 PM
Distance/Time
Traveled:
196nm/1:09
Distance/Time
To Go:
Arrived

Flight Plot

Page will automatically refresh every two minutes.

Flight plan parsing failed; only flown route is shown


Map Options




Map Legend


Flown Route
Filed Route
Departure Airport
Arrival Airport
Navaid (VOR, NDB)
Fix

Horizontal Profiles

Position Reports

Time Latitude Longitude Heading Altitude Ground
Speed
09-Jan-21 20:43 33.666958 -117.872405 43 60ft 0kts
09-Jan-21 20:43 33.666958 -117.872405 43 60ft 0kts
09-Jan-21 20:45 33.666958 -117.872405 43 60ft 0kts
09-Jan-21 20:46 33.666958 -117.872405 43 60ft 0kts
09-Jan-21 20:46 33.666958 -117.872405 43 60ft 0kts
09-Jan-21 20:48 33.666958 -117.872405 43 60ft 0kts
09-Jan-21 20:48 33.666958 -117.872405 43 60ft 0kts
09-Jan-21 20:49 33.666958 -117.872405 43 60ft 0kts
09-Jan-21 20:50 33.666958 -117.872405 43 60ft 0kts
09-Jan-21 20:51 33.666958 -117.872405 43 60ft 0kts
09-Jan-21 20:52 33.667141 -117.872314 1 60ft 4kts
09-Jan-21 20:53 33.669455 -117.870581 41 60ft 11kts
09-Jan-21 20:54 33.672160 -117.868094 27 60ft 13kts
09-Jan-21 20:55 33.675007 -117.866523 27 60ft 12kts
09-Jan-21 20:56 33.678338 -117.864400 27 60ft 11kts
09-Jan-21 20:57 33.680638 -117.863052 329 60ft 3kts
09-Jan-21 20:58 33.680701 -117.863151 301 60ft 2kts
09-Jan-21 20:59 33.677489 -117.865837 206 60ft 90kts
09-Jan-21 21:00 33.646840 -117.879215 186 1676ft 138kts
09-Jan-21 21:01 33.604729 -117.886472 189 3618ft 165kts
09-Jan-21 21:02 33.558506 -117.896285 204 5417ft 172kts
09-Jan-21 21:03 33.566564 -117.935512 334 7131ft 164kts
09-Jan-21 21:04 33.607803 -117.958890 336 8910ft 163kts
09-Jan-21 21:05 33.648636 -117.981331 337 10606ft 163kts
09-Jan-21 21:06 33.690088 -118.004013 337 12287ft 165kts
09-Jan-21 21:07 33.732144 -118.027002 337 13801ft 167kts
09-Jan-21 21:08 33.774726 -118.049768 348 15152ft 169kts
09-Jan-21 21:09 33.817040 -118.023485 29 16511ft 178kts
09-Jan-21 21:10 33.857439 -117.987849 30 17781ft 182kts
09-Jan-21 21:11 33.898249 -117.951000 30 18913ft 185kts
09-Jan-21 21:12 33.939830 -117.913303 29 19916ft 188kts
09-Jan-21 21:13 33.981896 -117.875122 29 20802ft 191kts
09-Jan-21 21:14 34.026205 -117.834962 29 21154ft 213kts
09-Jan-21 21:15 34.075800 -117.789351 35 21157ft 234kts
09-Jan-21 21:16 34.121295 -117.729574 41 21166ft 246kts
09-Jan-21 21:17 34.167510 -117.667298 41 21168ft 251kts
09-Jan-21 21:18 34.214275 -117.604165 41 21173ft 253kts
09-Jan-21 21:19 34.261355 -117.540490 41 21186ft 254kts
09-Jan-21 21:20 34.308186 -117.477031 41 21215ft 253kts
09-Jan-21 21:21 34.355205 -117.413219 41 21244ft 253kts
09-Jan-21 21:22 34.401990 -117.349609 41 21272ft 253kts
09-Jan-21 21:23 34.448881 -117.285735 41 21254ft 254kts
09-Jan-21 21:24 34.495878 -117.221581 41 21249ft 253kts
09-Jan-21 21:25 34.542080 -117.158395 41 21261ft 248kts
09-Jan-21 21:26 34.587578 -117.096071 41 21273ft 246kts
09-Jan-21 21:27 34.632813 -117.033966 40 21273ft 245kts
09-Jan-21 21:28 34.677741 -116.972208 40 21272ft 244kts
09-Jan-21 21:29 34.722516 -116.910539 39 21272ft 243kts
09-Jan-21 21:30 34.767310 -116.848807 39 21272ft 243kts
09-Jan-21 21:31 34.812085 -116.786974 39 21272ft 243kts
09-Jan-21 21:32 34.855927 -116.726220 39 21271ft 235kts
09-Jan-21 21:33 34.898764 -116.666862 38 21271ft 232kts
09-Jan-21 21:34 34.941144 -116.608028 39 21271ft 230kts
09-Jan-21 21:35 34.978161 -116.543011 51 21269ft 238kts
09-Jan-21 21:36 35.009803 -116.472031 51 21251ft 239kts
09-Jan-21 21:37 35.041495 -116.400612 52 21230ft 239kts
09-Jan-21 21:38 35.073197 -116.329047 52 21059ft 245kts
09-Jan-21 21:39 35.107103 -116.252245 53 20066ft 257kts
09-Jan-21 21:40 35.141007 -116.175338 53 19085ft 257kts
09-Jan-21 21:41 35.174828 -116.098452 54 18102ft 256kts
09-Jan-21 21:42 35.208586 -116.021536 54 17113ft 255kts
09-Jan-21 21:43 35.242125 -115.944977 54 16126ft 255kts
09-Jan-21 21:44 35.275569 -115.868425 54 15139ft 255kts
09-Jan-21 21:45 35.309159 -115.791783 51 14153ft 253kts
09-Jan-21 21:46 35.353998 -115.729538 41 13163ft 237kts
09-Jan-21 21:47 35.397740 -115.671290 41 12169ft 236kts
09-Jan-21 21:48 35.442233 -115.611850 42 11174ft 235kts
09-Jan-21 21:49 35.484864 -115.554713 43 10166ft 219kts
09-Jan-21 21:50 35.524810 -115.501307 43 9983ft 216kts
09-Jan-21 21:51 35.566201 -115.445704 43 9981ft 223kts
09-Jan-21 21:52 35.608180 -115.389259 43 9980ft 224kts
09-Jan-21 21:53 35.649678 -115.333217 43 9978ft 213kts
09-Jan-21 21:54 35.689308 -115.279846 43 9980ft 211kts
09-Jan-21 21:55 35.729051 -115.226179 44 9536ft 212kts
09-Jan-21 21:56 35.770995 -115.184546 21 8522ft 187kts
09-Jan-21 21:57 35.819838 -115.160095 21 7980ft 187kts
09-Jan-21 21:58 35.867635 -115.136363 21 7979ft 181kts
09-Jan-21 21:59 35.915671 -115.117716 2 7653ft 185kts
09-Jan-21 22:00 35.963838 -115.117805 1 6924ft 164kts
09-Jan-21 22:01 36.007327 -115.112076 11 6102ft 152kts
09-Jan-21 22:02 36.049317 -115.099246 19 5299ft 161kts
09-Jan-21 22:03 36.090799 -115.082252 19 4421ft 146kts
09-Jan-21 22:04 36.124413 -115.085854 319 4009ft 123kts
09-Jan-21 22:05 36.139693 -115.120530 244 3615ft 127kts
09-Jan-21 22:06 36.115900 -115.147041 203 2755ft 111kts
09-Jan-21 22:07 36.091061 -115.161327 204 2185ft 49kts
09-Jan-21 22:08 36.083650 -115.166746 228 2185ft 0kts
09-Jan-21 22:10 36.083649 -115.166747 228 2185ft 0kts
09-Jan-21 22:11 36.081430 -115.169574 242 2185ft 17kts
09-Jan-21 22:12 36.080394 -115.170376 200 2185ft 0kts

Navigation Log

Ident Type
Flight plan parsing failed, navigation log unavailable